Terminal Aerodrome Forecast
Issued by NWS

Home | Current Version | Previous Version | Text Only | Print | Product List | Glossary On
Versions: 1 2 3 4 5 6 7 8 9 10 11 12 13 14
337
FTUS44 KCRP 242038 AAA
TAFLRD
TAF AMD
KLRD 242038Z 2421/2518 09010KT P6SM BKN050
      TEMPO 2421/2423 3SM -TSRA BKN050CB
     FM250800 12008KT P6SM SCT015 BKN250
     FM251200 12006KT P6SM BKN015
     FM251500 09008KT P6SM SCT040=

USA.gov is the U.S. government's official web portal to all federal, state and local government web resources and services.